createdAt,value
2022-11-28T00:00:39.822Z,7.02
2022-11-28T00:04:56.150Z,7.01
2022-11-28T00:09:14.201Z,7.09
2022-11-28T00:13:30.697Z,6.79
2022-11-28T00:17:46.953Z,7.27
2022-11-28T00:22:03.408Z,7.00
2022-11-28T00:26:25.820Z,7.11
2022-11-28T00:30:42.070Z,7.02
2022-11-28T00:34:58.218Z,7.31
2022-11-28T00:39:15.844Z,7.38
2022-11-28T00:43:32.189Z,7.13
2022-11-28T00:47:49.505Z,7.11
2022-11-28T00:52:05.770Z,7.01
2022-11-28T00:56:28.200Z,7.18
2022-11-28T01:00:44.512Z,7.31
2022-11-28T01:05:01.251Z,6.96
2022-11-28T01:09:22.492Z,7.18
2022-11-28T01:13:38.898Z,7.22
2022-11-28T01:17:55.131Z,7.07
2022-11-28T01:22:11.383Z,7.11
2022-11-28T01:26:29.188Z,6.80
2022-11-28T01:30:45.379Z,7.11
2022-11-28T01:35:01.680Z,7.09
2022-11-28T01:39:17.893Z,7.03
2022-11-28T01:43:34.400Z,7.17
2022-11-28T01:47:52.254Z,7.17
2022-11-28T01:52:15.575Z,7.00
2022-11-28T01:56:38.677Z,7.12
2022-11-28T02:00:55.443Z,6.56
2022-11-28T02:05:11.881Z,6.75
2022-11-28T02:09:28.091Z,6.59
2022-11-28T02:14:06.008Z,6.69
2022-11-28T02:18:41.638Z,6.77
2022-11-28T02:23:21.638Z,6.73
2022-11-28T02:28:03.970Z,6.70
2022-11-28T02:32:51.172Z,6.70
2022-11-28T02:37:17.883Z,6.73
2022-11-28T02:42:03.501Z,6.56
2022-11-28T02:46:31.664Z,6.58
2022-11-28T02:51:06.188Z,6.46
2022-11-28T02:55:23.238Z,6.85
2022-11-28T02:59:39.462Z,6.86
2022-11-28T03:04:07.511Z,6.84
2022-11-28T03:08:40.263Z,6.57
2022-11-28T03:12:59.613Z,7.13
2022-11-28T03:17:18.553Z,6.52
2022-11-28T03:22:03.703Z,6.76
2022-11-28T03:26:44.841Z,6.84
2022-11-28T03:31:22.922Z,6.70
2022-11-28T03:35:42.938Z,7.11
2022-11-28T03:40:03.291Z,7.15
2022-11-28T03:44:32.176Z,7.17
2022-11-28T03:48:52.591Z,7.20
2022-11-28T03:53:13.931Z,7.06
2022-11-28T03:57:40.315Z,7.04
2022-11-28T04:02:29.448Z,7.03
2022-11-28T04:06:56.957Z,7.01
2022-11-28T04:11:15.245Z,6.92
2022-11-28T04:15:35.606Z,7.06
2022-11-28T04:19:55.323Z,7.03
2022-11-28T04:24:21.228Z,6.97
2022-11-28T04:28:38.392Z,6.59
2022-11-28T04:32:59.789Z,6.44
2022-11-28T04:37:17.035Z,6.52
2022-11-28T04:41:53.180Z,6.58
2022-11-28T04:46:16.244Z,6.94
2022-11-28T04:50:56.572Z,6.90
2022-11-28T04:55:20.788Z,6.77
2022-11-28T04:59:37.740Z,6.58
2022-11-28T05:03:54.478Z,6.12
2022-11-28T05:08:11.073Z,6.40
2022-11-28T05:12:27.251Z,6.23
2022-11-28T05:16:43.467Z,6.13
2022-11-28T05:21:00.263Z,6.37
2022-11-28T05:25:16.599Z,6.23
2022-11-28T05:29:32.853Z,6.01
2022-11-28T05:33:49.118Z,5.75
2022-11-28T05:38:09.332Z,6.18
2022-11-28T05:42:30.516Z,5.96
2022-11-28T05:46:46.739Z,5.91
2022-11-28T05:51:05.384Z,6.22
2022-11-28T05:55:21.587Z,6.17
2022-11-28T05:59:38.029Z,6.33
2022-11-28T06:04:00.113Z,6.71
2022-11-28T06:08:16.900Z,6.60
2022-11-28T06:12:33.608Z,6.52
2022-11-28T06:16:50.015Z,6.25
2022-11-28T06:21:07.696Z,6.19
2022-11-28T06:25:23.851Z,6.62
2022-11-28T06:29:40.163Z,6.72
2022-11-28T06:33:57.240Z,6.38
2022-11-28T06:38:14.487Z,6.13
2022-11-28T06:42:30.909Z,6.58
2022-11-28T06:46:47.149Z,6.67
2022-11-28T06:51:05.497Z,6.75
2022-11-28T06:55:21.740Z,6.75
2022-11-28T06:59:37.961Z,6.38
2022-11-28T07:03:57.302Z,6.77
2022-11-28T07:08:13.617Z,6.41
2022-11-28T07:12:29.821Z,6.42
2022-11-28T07:16:46.195Z,6.73
2022-11-28T07:21:02.548Z,6.45
2022-11-28T07:25:18.829Z,6.43
2022-11-28T07:29:37.979Z,6.76
2022-11-28T07:33:54.212Z,6.88
2022-11-28T07:38:10.303Z,6.47
2022-11-28T07:42:26.481Z,6.80
2022-11-28T07:46:42.777Z,7.42
2022-11-28T07:50:59.139Z,6.80
2022-11-28T07:55:15.389Z,6.88
2022-11-28T07:59:31.548Z,6.96
2022-11-28T08:03:48.573Z,7.02
2022-11-28T08:08:04.920Z,6.95
2022-11-28T08:12:21.121Z,6.65
2022-11-28T08:16:37.365Z,6.98
2022-11-28T08:20:53.734Z,7.19
2022-11-28T08:25:10.234Z,7.25
2022-11-28T08:29:26.489Z,7.38
2022-11-28T08:33:43.632Z,7.50
2022-11-28T08:38:01.998Z,6.76
2022-11-28T08:42:18.491Z,7.02
2022-11-28T08:46:34.992Z,7.29
2022-11-28T08:50:52.926Z,6.99
2022-11-28T08:55:09.596Z,7.26
2022-11-28T08:59:26.141Z,7.51
2022-11-28T09:03:42.307Z,7.56
2022-11-28T09:07:58.596Z,7.20
2022-11-28T09:12:14.832Z,7.82
2022-11-28T09:16:31.129Z,7.63
2022-11-28T09:20:47.701Z,7.64
2022-11-28T09:25:04.238Z,7.66
2022-11-28T09:29:20.383Z,7.64
2022-11-28T09:33:36.891Z,7.80
2022-11-28T09:37:53.194Z,8.05
2022-11-28T09:42:31.030Z,8.17
2022-11-28T09:46:49.420Z,7.89
2022-11-28T09:51:42.877Z,8.27
2022-11-28T09:56:15.953Z,8.50
2022-11-28T10:00:38.978Z,8.13
2022-11-28T10:05:24.516Z,7.79
2022-11-28T10:10:13.269Z,7.88
2022-11-28T10:15:20.288Z,7.56
2022-11-28T10:19:55.147Z,8.39
2022-11-28T10:24:39.793Z,8.32
2022-11-28T10:28:58.021Z,8.22
2022-11-28T10:33:23.137Z,8.06
2022-11-28T10:37:39.960Z,8.06
2022-11-28T10:42:14.049Z,7.79
2022-11-28T10:46:37.305Z,7.96
2022-11-28T10:51:11.810Z,7.41
2022-11-28T10:55:41.019Z,7.85
2022-11-28T11:00:07.617Z,8.00
2022-11-28T11:04:27.097Z,8.20
2022-11-28T11:08:45.746Z,8.41
2022-11-28T11:13:11.368Z,8.21
2022-11-28T11:17:36.453Z,8.35
2022-11-28T11:22:21.064Z,8.13
2022-11-28T11:26:49.866Z,7.97
2022-11-28T11:31:15.007Z,8.00
2022-11-28T11:35:37.199Z,7.82
2022-11-28T11:39:54.245Z,7.49
2022-11-28T11:44:19.531Z,7.68
2022-11-28T11:48:38.202Z,7.67
2022-11-28T11:53:04.902Z,7.63
2022-11-28T11:57:32.975Z,7.44
2022-11-28T12:01:54.573Z,7.67
2022-11-28T12:06:32.955Z,7.46
2022-11-28T12:11:08.047Z,7.31
2022-11-28T12:15:35.271Z,7.02
2022-11-28T12:20:21.650Z,7.65
2022-11-28T12:24:54.752Z,7.59
2022-11-28T12:29:32.041Z,7.51
2022-11-28T12:34:03.703Z,7.61
2022-11-28T12:38:32.226Z,7.30
2022-11-28T12:42:57.427Z,7.37
2022-11-28T12:47:28.022Z,6.71
2022-11-28T12:52:01.210Z,7.12
2022-11-28T12:56:44.004Z,7.06
2022-11-28T13:01:34.387Z,6.90
2022-11-28T13:06:16.754Z,7.31
2022-11-28T13:10:42.054Z,7.45
2022-11-28T13:15:08.829Z,7.24
2022-11-28T13:19:57.445Z,7.26
2022-11-28T13:24:40.345Z,7.38
2022-11-28T13:29:27.401Z,7.17
2022-11-28T13:33:57.068Z,7.40
2022-11-28T13:38:58.743Z,7.60
2022-11-28T13:43:39.667Z,7.50
2022-11-28T13:47:55.903Z,7.24
2022-11-28T13:52:21.964Z,7.26
2022-11-28T13:56:38.066Z,7.12
2022-11-28T14:01:07.980Z,7.53
2022-11-28T14:05:37.805Z,7.18
2022-11-28T14:10:02.867Z,6.97
2022-11-28T14:14:34.202Z,7.09
2022-11-28T14:18:57.498Z,7.14
2022-11-28T14:23:25.477Z,6.60
2022-11-28T14:27:48.904Z,7.14
2022-11-28T14:32:28.907Z,6.85
2022-11-28T14:36:44.019Z,6.56
2022-11-28T14:41:11.997Z,6.51
2022-11-28T14:45:41.075Z,6.35
2022-11-28T14:50:17.827Z,6.42
2022-11-28T14:54:43.326Z,6.35
2022-11-28T14:59:03.630Z,6.17
2022-11-28T15:03:40.890Z,6.22
2022-11-28T15:08:18.726Z,6.29
2022-11-28T15:12:44.401Z,6.19
2022-11-28T15:17:06.444Z,6.32
2022-11-28T15:21:23.335Z,6.14
2022-11-28T15:25:40.150Z,6.17
2022-11-28T15:30:01.131Z,6.21
2022-11-28T15:34:28.343Z,6.19
2022-11-28T15:38:46.539Z,6.15
2022-11-28T15:43:08.096Z,6.32
2022-11-28T15:47:29.096Z,6.19
2022-11-28T15:51:51.715Z,6.09
2022-11-28T15:56:13.898Z,6.26
2022-11-28T16:00:30.240Z,6.05
2022-11-28T16:04:46.872Z,6.07
2022-11-28T16:09:19.363Z,5.93
2022-11-28T16:13:37.502Z,6.23
2022-11-28T16:17:55.797Z,5.83
2022-11-28T16:22:17.910Z,5.90
2022-11-28T16:26:42.683Z,5.52
2022-11-28T16:30:59.307Z,5.64
2022-11-28T16:35:40.633Z,5.87
2022-11-28T16:40:19.670Z,5.70
2022-11-28T16:44:37.108Z,5.77
2022-11-28T16:49:00.935Z,5.80
2022-11-28T16:53:36.856Z,5.98
2022-11-28T16:58:07.561Z,6.05
2022-11-28T17:02:25.623Z,5.94
2022-11-28T17:06:42.880Z,5.92
2022-11-28T17:10:59.434Z,5.81
2022-11-28T17:15:19.050Z,6.07
2022-11-28T17:19:35.957Z,6.04
2022-11-28T17:23:53.050Z,6.34
2022-11-28T17:28:14.832Z,6.21
2022-11-28T17:32:35.341Z,6.23
2022-11-28T17:36:51.992Z,6.08
2022-11-28T17:41:13.714Z,6.05
2022-11-28T17:45:31.976Z,5.92
2022-11-28T17:49:48.708Z,5.64
2022-11-28T17:54:05.417Z,5.98
2022-11-28T17:58:24.032Z,5.85
2022-11-28T18:02:40.214Z,5.74
2022-11-28T18:06:56.579Z,5.84
2022-11-28T18:11:13.792Z,5.61
2022-11-28T18:15:30.531Z,5.80
2022-11-28T18:19:50.217Z,5.88
2022-11-28T18:24:08.988Z,5.70
2022-11-28T18:28:25.449Z,5.10
2022-11-28T18:32:41.890Z,5.06
2022-11-28T18:37:00.964Z,5.24
2022-11-28T18:41:18.433Z,5.07
2022-11-28T18:45:35.385Z,5.01
2022-11-28T18:49:51.749Z,5.07
2022-11-28T18:54:07.977Z,5.08
2022-11-28T18:58:24.191Z,5.18
2022-11-28T19:02:40.991Z,5.41
2022-11-28T19:06:57.272Z,5.26
2022-11-28T19:11:15.710Z,5.12
2022-11-28T19:15:32.122Z,5.15
2022-11-28T19:19:48.573Z,5.32
2022-11-28T19:24:05.698Z,5.50
2022-11-28T19:28:21.885Z,4.98
2022-11-28T19:32:38.148Z,5.06
2022-11-28T19:36:54.483Z,5.05
2022-11-28T19:41:15.512Z,5.05
2022-11-28T19:45:31.704Z,4.94
2022-11-28T19:49:48.006Z,4.83
2022-11-28T19:54:04.385Z,4.85
2022-11-28T19:58:20.688Z,4.77
2022-11-28T20:02:36.861Z,4.56
2022-11-28T20:06:53.708Z,4.41
2022-11-28T20:11:18.146Z,4.62
2022-11-28T20:15:37.760Z,4.75
2022-11-28T20:19:54.005Z,4.24
2022-11-28T20:24:10.612Z,4.56
2022-11-28T20:28:26.775Z,4.41
2022-11-28T20:32:42.951Z,4.47
2022-11-28T20:36:59.668Z,4.51
2022-11-28T20:41:17.781Z,4.43
2022-11-28T20:45:33.954Z,4.76
2022-11-28T20:49:50.170Z,4.75
2022-11-28T20:54:06.872Z,4.66
2022-11-28T20:58:22.987Z,4.14
2022-11-28T21:02:39.178Z,4.31
2022-11-28T21:06:55.383Z,4.69
2022-11-28T21:11:36.635Z,5.15
2022-11-28T21:15:53.900Z,4.92
2022-11-28T21:20:10.550Z,5.10
2022-11-28T21:24:26.743Z,5.05
2022-11-28T21:28:44.616Z,5.03
2022-11-28T21:33:00.889Z,4.47
2022-11-28T21:37:17.031Z,4.79
2022-11-28T21:41:33.732Z,4.88
2022-11-28T21:45:50.568Z,5.05
2022-11-28T21:50:07.339Z,4.65
2022-11-28T21:54:23.567Z,5.08
2022-11-28T21:58:40.093Z,5.22
2022-11-28T22:03:02.728Z,5.17
2022-11-28T22:07:19.663Z,4.77
2022-11-28T22:11:35.987Z,4.96
2022-11-28T22:15:52.223Z,4.84
2022-11-28T22:20:09.436Z,4.99
2022-11-28T22:24:25.743Z,4.79
2022-11-28T22:28:41.974Z,5.07
2022-11-28T22:32:58.205Z,4.98
2022-11-28T22:37:14.368Z,4.74
2022-11-28T22:41:30.789Z,4.87
2022-11-28T22:45:55.019Z,4.90
2022-11-28T22:50:11.519Z,4.40
2022-11-28T22:54:27.755Z,4.32
2022-11-28T22:58:45.218Z,4.89
2022-11-28T23:03:01.556Z,4.73
2022-11-28T23:07:18.055Z,4.76
2022-11-28T23:11:35.898Z,4.51
2022-11-28T23:15:52.987Z,4.69
2022-11-28T23:20:09.934Z,4.23
2022-11-28T23:24:26.226Z,4.11
2022-11-28T23:28:42.735Z,4.36
2022-11-28T23:32:58.995Z,4.64
2022-11-28T23:37:15.144Z,4.39
2022-11-28T23:41:31.834Z,4.42
2022-11-28T23:45:48.094Z,4.28
2022-11-28T23:50:04.813Z,4.73
2022-11-28T23:54:21.011Z,4.63
2022-11-28T23:58:37.635Z,4.45
